createdAt,value
2018-05-15T00:00:48.407Z,948.83
2018-05-15T00:01:48.434Z,948.86
2018-05-15T00:02:48.455Z,948.8
2018-05-15T00:03:48.478Z,948.82
2018-05-15T00:04:48.521Z,948.8
2018-05-15T00:05:48.525Z,948.81
2018-05-15T00:06:48.548Z,948.79
2018-05-15T00:07:48.577Z,948.79
2018-05-15T00:08:48.659Z,948.79
2018-05-15T00:09:48.617Z,948.75
2018-05-15T00:10:48.643Z,948.78
2018-05-15T00:11:48.669Z,948.81
2018-05-15T00:12:48.688Z,948.8
2018-05-15T00:13:48.713Z,948.85
2018-05-15T00:14:48.736Z,948.82
2018-05-15T00:15:48.761Z,948.83
2018-05-15T00:16:48.781Z,948.83
2018-05-15T00:17:48.802Z,948.82
2018-05-15T00:18:48.824Z,948.77
2018-05-15T00:19:48.847Z,948.81
2018-05-15T00:20:48.870Z,948.78
2018-05-15T00:21:48.892Z,948.79
2018-05-15T00:22:48.916Z,948.79
2018-05-15T00:23:48.938Z,948.79
2018-05-15T00:24:48.961Z,948.77
2018-05-15T00:25:48.984Z,948.75
2018-05-15T00:26:49.007Z,948.75
2018-05-15T00:27:49.032Z,948.79
2018-05-15T00:28:49.051Z,948.81
2018-05-15T00:29:49.076Z,948.85
2018-05-15T00:30:49.099Z,948.83
2018-05-15T00:31:49.122Z,948.8
2018-05-15T00:32:49.145Z,948.79
2018-05-15T00:33:49.168Z,948.81
2018-05-15T00:34:49.190Z,948.81
2018-05-15T00:35:49.211Z,948.85
2018-05-15T00:36:49.239Z,948.82
2018-05-15T00:37:49.259Z,948.83
2018-05-15T00:38:49.279Z,948.83
2018-05-15T00:39:49.301Z,948.85
2018-05-15T00:40:49.326Z,948.84
2018-05-15T00:41:49.350Z,948.84
2018-05-15T00:42:49.373Z,948.9
2018-05-15T00:43:49.395Z,948.87
2018-05-15T00:44:49.418Z,948.88
2018-05-15T00:45:49.442Z,948.85
2018-05-15T00:46:49.462Z,948.84
2018-05-15T00:47:49.484Z,948.81
2018-05-15T00:48:49.508Z,948.79
2018-05-15T00:49:49.531Z,948.79
2018-05-15T00:50:49.552Z,948.79
2018-05-15T00:51:49.578Z,948.81
2018-05-15T00:52:49.598Z,948.79
2018-05-15T00:53:49.621Z,948.78
2018-05-15T00:54:49.643Z,948.79
2018-05-15T00:55:49.665Z,948.81
2018-05-15T00:56:49.690Z,948.77
2018-05-15T00:57:49.711Z,948.78
2018-05-15T00:58:49.738Z,948.76
2018-05-15T00:59:49.756Z,948.78
2018-05-15T01:00:49.782Z,948.81
2018-05-15T01:01:49.803Z,948.79
2018-05-15T01:02:49.829Z,948.78
2018-05-15T01:03:49.847Z,948.79
2018-05-15T01:04:49.875Z,948.79
2018-05-15T01:05:49.893Z,948.76
2018-05-15T01:06:49.916Z,948.76
2018-05-15T01:07:49.943Z,948.72
2018-05-15T01:08:49.959Z,948.76
2018-05-15T01:09:49.984Z,948.7
2018-05-15T01:10:50.008Z,948.74
2018-05-15T01:11:50.029Z,948.73
2018-05-15T01:12:50.051Z,948.72
2018-05-15T01:13:50.073Z,948.73
2018-05-15T01:14:50.097Z,948.73
2018-05-15T01:15:50.118Z,948.75
2018-05-15T01:16:50.141Z,948.72
2018-05-15T01:17:50.162Z,948.7
2018-05-15T01:18:50.185Z,948.67
2018-05-15T01:19:50.212Z,948.65
2018-05-15T01:20:50.231Z,948.67
2018-05-15T01:21:50.260Z,948.65
2018-05-15T01:22:50.280Z,948.71
2018-05-15T01:23:50.299Z,948.7
2018-05-15T01:24:50.321Z,948.7
2018-05-15T01:25:50.345Z,948.74
2018-05-15T01:26:50.367Z,948.71
2018-05-15T01:27:50.389Z,948.74
2018-05-15T01:28:50.414Z,948.71
2018-05-15T01:29:50.457Z,948.71
2018-05-15T01:30:50.458Z,948.76
2018-05-15T01:31:50.481Z,948.78
2018-05-15T01:32:50.502Z,948.75
2018-05-15T01:33:50.526Z,948.77
2018-05-15T01:34:50.550Z,948.78
2018-05-15T01:35:50.570Z,948.79
2018-05-15T01:36:50.592Z,948.75
2018-05-15T01:37:50.614Z,948.7
2018-05-15T01:38:50.637Z,948.72
2018-05-15T01:39:50.661Z,948.79
2018-05-15T01:40:50.681Z,948.76
2018-05-15T01:41:50.704Z,948.76
2018-05-15T01:42:50.726Z,948.78
2018-05-15T01:43:50.749Z,948.81
2018-05-15T01:44:50.776Z,948.86
2018-05-15T01:45:50.791Z,948.87
2018-05-15T01:46:50.815Z,948.82
2018-05-15T01:47:50.838Z,948.8
2018-05-15T01:48:50.857Z,948.83
2018-05-15T01:49:50.882Z,948.89
2018-05-15T01:50:50.901Z,948.85
2018-05-15T01:51:50.924Z,948.84
2018-05-15T01:52:50.958Z,948.87
2018-05-15T01:53:50.969Z,948.87
2018-05-15T01:54:50.991Z,948.85
2018-05-15T01:55:51.013Z,948.89
2018-05-15T01:56:51.034Z,948.85
2018-05-15T01:57:51.056Z,948.88
2018-05-15T01:58:51.079Z,948.87
2018-05-15T01:59:51.098Z,948.95
2018-05-15T02:00:51.127Z,948.88
2018-05-15T02:01:51.143Z,948.91
2018-05-15T02:02:51.165Z,948.93
2018-05-15T02:03:51.184Z,948.89
2018-05-15T02:04:51.206Z,948.9
2018-05-15T02:05:51.229Z,948.9
2018-05-15T02:06:51.250Z,948.91
2018-05-15T02:07:51.272Z,948.97
2018-05-15T02:08:51.302Z,948.96
2018-05-15T02:09:51.316Z,948.89
2018-05-15T02:10:51.337Z,948.96
2018-05-15T02:11:51.357Z,948.91
2018-05-15T02:12:51.380Z,948.94
2018-05-15T02:13:51.402Z,948.96
2018-05-15T02:14:51.434Z,948.99
2018-05-15T02:15:51.461Z,949
2018-05-15T02:16:51.466Z,948.99
2018-05-15T02:17:51.488Z,948.97
2018-05-15T02:18:51.507Z,949.01
2018-05-15T02:19:51.531Z,948.98
2018-05-15T02:20:51.552Z,948.93
2018-05-15T02:21:51.574Z,948.99
2018-05-15T02:22:51.598Z,948.93
2018-05-15T02:23:51.615Z,948.93
2018-05-15T02:24:51.637Z,948.92
2018-05-15T02:25:51.658Z,948.96
2018-05-15T02:26:51.679Z,948.94
2018-05-15T02:27:51.701Z,948.92
2018-05-15T02:28:51.720Z,948.9
2018-05-15T02:29:51.744Z,948.91
2018-05-15T02:30:51.769Z,948.9
2018-05-15T02:31:51.788Z,948.95
2018-05-15T02:32:51.807Z,948.92
2018-05-15T02:33:51.828Z,948.96
2018-05-15T02:34:51.850Z,949.01
2018-05-15T02:35:51.874Z,949
2018-05-15T02:36:51.893Z,948.99
2018-05-15T02:37:51.915Z,949.01
2018-05-15T02:38:51.937Z,949.05
2018-05-15T02:39:51.957Z,948.99
2018-05-15T02:40:51.980Z,949.05
2018-05-15T02:41:52.006Z,949.08
2018-05-15T02:42:52.023Z,949.05
2018-05-15T02:43:52.045Z,949.05
2018-05-15T02:44:52.064Z,949.06
2018-05-15T02:45:52.090Z,949.07
2018-05-15T02:46:52.108Z,949.05
2018-05-15T02:47:52.129Z,949.05
2018-05-15T02:48:52.148Z,949.07
2018-05-15T02:49:52.169Z,949.04
2018-05-15T02:50:52.190Z,949.03
2018-05-15T02:51:52.215Z,949.07
2018-05-15T02:52:52.235Z,949.08
2018-05-15T02:53:52.259Z,949.07
2018-05-15T02:54:52.278Z,949.07
2018-05-15T02:55:52.300Z,949.08
2018-05-15T02:56:52.321Z,949.08
2018-05-15T02:57:52.341Z,949.07
2018-05-15T02:58:52.361Z,949.06
2018-05-15T02:59:52.384Z,949.06
2018-05-15T03:00:52.406Z,949.04
2018-05-15T03:01:52.427Z,949.11
2018-05-15T03:02:52.447Z,949.11
2018-05-15T03:03:52.470Z,949.09
2018-05-15T03:04:52.491Z,949.11
2018-05-15T03:05:52.511Z,949.06
2018-05-15T03:06:52.531Z,949.07
2018-05-15T03:07:52.556Z,949.08
2018-05-15T03:08:52.574Z,949.06
2018-05-15T03:09:52.595Z,949.05
2018-05-15T03:10:52.615Z,949.05
2018-05-15T03:11:52.638Z,949.04
2018-05-15T03:12:52.658Z,949.09
2018-05-15T03:13:52.679Z,949.06
2018-05-15T03:14:52.707Z,949.1
2018-05-15T03:15:52.725Z,949.11
2018-05-15T03:16:52.745Z,949.09
2018-05-15T03:17:52.763Z,949.1
2018-05-15T03:18:52.783Z,949.14
2018-05-15T03:19:52.805Z,949.16
2018-05-15T03:20:52.827Z,949.19
2018-05-15T03:21:52.847Z,949.17
2018-05-15T03:22:52.869Z,949.16
2018-05-15T03:23:52.889Z,949.21
2018-05-15T03:24:52.911Z,949.21
2018-05-15T03:25:52.933Z,949.26
2018-05-15T03:26:52.958Z,949.22
2018-05-15T03:27:52.977Z,949.27
2018-05-15T03:28:52.998Z,949.27
2018-05-15T03:29:53.020Z,949.27
2018-05-15T03:30:53.049Z,949.28
2018-05-15T03:31:53.064Z,949.24
2018-05-15T03:32:53.082Z,949.27
2018-05-15T03:33:53.104Z,949.24
2018-05-15T03:34:53.126Z,949.23
2018-05-15T03:35:53.146Z,949.21
2018-05-15T03:36:53.168Z,949.23
2018-05-15T03:37:53.189Z,949.27
2018-05-15T03:38:53.209Z,949.27
2018-05-15T03:39:53.250Z,949.25
2018-05-15T03:40:53.252Z,949.28
2018-05-15T03:41:53.274Z,949.33
2018-05-15T03:42:53.294Z,949.31
2018-05-15T03:43:53.319Z,949.34
2018-05-15T03:44:53.335Z,949.35
2018-05-15T03:45:53.357Z,949.39
2018-05-15T03:46:53.428Z,949.39
2018-05-15T03:47:53.399Z,949.44
2018-05-15T03:48:53.419Z,949.46
2018-05-15T03:49:53.440Z,949.49
2018-05-15T03:50:53.463Z,949.46
2018-05-15T03:51:53.485Z,949.5
2018-05-15T03:52:53.507Z,949.5
2018-05-15T03:53:53.527Z,949.5
2018-05-15T03:54:53.551Z,949.46
2018-05-15T03:55:53.569Z,949.48
2018-05-15T03:56:53.590Z,949.48
2018-05-15T03:57:53.611Z,949.51
2018-05-15T03:58:53.633Z,949.51
2018-05-15T03:59:53.656Z,949.51
2018-05-15T04:00:53.675Z,949.52
2018-05-15T04:01:53.746Z,949.55
2018-05-15T04:02:53.720Z,949.55
2018-05-15T04:03:53.740Z,949.57
2018-05-15T04:04:53.760Z,949.59
2018-05-15T04:05:53.782Z,949.62
2018-05-15T04:06:53.804Z,949.6
2018-05-15T04:07:53.824Z,949.58
2018-05-15T04:08:53.845Z,949.62
2018-05-15T04:09:53.952Z,949.63
2018-05-15T04:10:53.926Z,949.65
2018-05-15T04:11:53.914Z,949.7
2018-05-15T04:12:53.931Z,949.7
2018-05-15T04:13:53.953Z,949.69
2018-05-15T04:14:53.974Z,949.71
2018-05-15T04:15:53.995Z,949.68
2018-05-15T04:16:54.066Z,949.73
2018-05-15T04:17:54.047Z,949.73
2018-05-15T04:18:54.060Z,949.75
2018-05-15T04:19:54.081Z,949.76
2018-05-15T04:20:54.103Z,949.75
2018-05-15T04:21:54.125Z,949.74
2018-05-15T04:22:54.147Z,949.73
2018-05-15T04:23:54.169Z,949.73
2018-05-15T04:24:54.190Z,949.74
2018-05-15T04:25:54.212Z,949.71
2018-05-15T04:26:54.239Z,949.75
2018-05-15T04:27:54.255Z,949.77
2018-05-15T04:28:54.277Z,949.77
2018-05-15T04:29:54.300Z,949.78
2018-05-15T04:30:54.321Z,949.77
2018-05-15T04:31:54.393Z,949.75
2018-05-15T04:32:54.365Z,949.79
2018-05-15T04:33:54.390Z,949.78
2018-05-15T04:34:54.409Z,949.81
2018-05-15T04:35:54.433Z,949.79
2018-05-15T04:36:54.454Z,949.78
2018-05-15T04:37:54.475Z,949.81
2018-05-15T04:38:54.497Z,949.83
2018-05-15T04:39:54.518Z,949.88
2018-05-15T04:40:54.549Z,949.95
2018-05-15T04:41:54.565Z,949.93
2018-05-15T04:42:54.585Z,949.99
2018-05-15T04:43:54.754Z,950.02
2018-05-15T04:44:54.629Z,950
2018-05-15T04:45:54.661Z,950.03
2018-05-15T04:46:54.723Z,949.99
2018-05-15T04:47:54.693Z,950
2018-05-15T04:48:54.715Z,950.01
2018-05-15T04:49:54.738Z,950.01
2018-05-15T04:50:54.762Z,950.05
2018-05-15T04:51:54.781Z,950.04
2018-05-15T04:52:54.882Z,950.04
2018-05-15T04:53:54.826Z,950.04
2018-05-15T04:54:54.850Z,950.05
2018-05-15T04:55:54.871Z,950.06
2018-05-15T04:56:54.892Z,950.1
2018-05-15T04:57:54.913Z,950.05
2018-05-15T04:58:54.937Z,950.14
2018-05-15T04:59:54.956Z,950.16
2018-05-15T05:00:54.979Z,950.15
2018-05-15T05:01:55.142Z,950.12
2018-05-15T05:02:55.029Z,950.16
2018-05-15T05:03:55.048Z,950.15
2018-05-15T05:04:55.068Z,950.13
2018-05-15T05:05:55.092Z,950.15
2018-05-15T05:06:55.114Z,950.17
2018-05-15T05:07:55.137Z,950.13
2018-05-15T05:08:55.158Z,950.17
2018-05-15T05:09:55.179Z,950.2
2018-05-15T05:10:55.205Z,950.16
2018-05-15T05:11:55.226Z,950.18
2018-05-15T05:12:55.250Z,950.15
2018-05-15T05:13:55.273Z,950.16
2018-05-15T05:14:55.292Z,950.13
2018-05-15T05:15:55.313Z,950.14
2018-05-15T05:16:55.388Z,950.12
2018-05-15T05:17:55.360Z,950.16
2018-05-15T05:18:55.382Z,950.16
2018-05-15T05:19:55.406Z,950.18
2018-05-15T05:20:55.430Z,950.18
2018-05-15T05:21:55.450Z,950.19
2018-05-15T05:22:55.474Z,950.22
2018-05-15T05:23:55.496Z,950.19
2018-05-15T05:24:55.518Z,950.17
2018-05-15T05:25:55.540Z,950.19
2018-05-15T05:26:55.562Z,950.19
2018-05-15T05:27:55.590Z,950.22
2018-05-15T05:28:55.608Z,950.23
2018-05-15T05:29:55.630Z,950.25
2018-05-15T05:30:55.653Z,950.24
2018-05-15T05:31:55.724Z,950.26
2018-05-15T05:32:55.698Z,950.28
2018-05-15T05:33:55.720Z,950.24
2018-05-15T05:34:55.777Z,950.3
2018-05-15T05:35:55.768Z,950.35
2018-05-15T05:36:55.786Z,950.31
2018-05-15T05:37:55.812Z,950.31
2018-05-15T05:38:55.833Z,950.4
2018-05-15T05:39:55.855Z,950.36
2018-05-15T05:40:55.880Z,950.36
2018-05-15T05:41:55.902Z,950.32
2018-05-15T05:42:55.924Z,950.34
2018-05-15T05:43:55.946Z,950.33
2018-05-15T05:44:55.976Z,950.35
2018-05-15T05:45:55.995Z,950.34
2018-05-15T05:46:56.065Z,950.37
2018-05-15T05:47:56.038Z,950.41
2018-05-15T05:48:56.061Z,950.41
2018-05-15T05:49:56.082Z,950.39
2018-05-15T05:50:56.105Z,950.43
2018-05-15T05:51:56.139Z,950.44
2018-05-15T05:52:56.149Z,950.43
2018-05-15T05:53:56.172Z,950.46
2018-05-15T05:54:56.281Z,950.45
2018-05-15T05:55:56.221Z,950.45
2018-05-15T05:56:56.242Z,950.44
2018-05-15T05:57:56.271Z,950.53
2018-05-15T05:58:56.285Z,950.52
2018-05-15T05:59:56.308Z,950.56
2018-05-15T06:00:56.334Z,950.52
2018-05-15T06:01:56.406Z,950.6
2018-05-15T06:02:56.385Z,950.6
2018-05-15T06:03:56.403Z,950.62
2018-05-15T06:04:56.424Z,950.61
2018-05-15T06:05:56.448Z,950.58
2018-05-15T06:06:56.470Z,950.58
2018-05-15T06:07:56.492Z,950.58
2018-05-15T06:08:56.516Z,950.59
2018-05-15T06:09:56.540Z,950.6
2018-05-15T06:10:56.563Z,950.6
2018-05-15T06:11:56.585Z,950.59
2018-05-15T06:12:56.608Z,950.58
2018-05-15T06:13:56.632Z,950.57
2018-05-15T06:14:56.654Z,950.58
2018-05-15T06:15:56.678Z,950.62
2018-05-15T06:16:56.751Z,950.68
2018-05-15T06:17:56.724Z,950.65
2018-05-15T06:18:56.763Z,950.69
2018-05-15T06:19:56.770Z,950.67
2018-05-15T06:20:56.817Z,950.69
2018-05-15T06:21:56.817Z,950.71
2018-05-15T06:22:56.840Z,950.67
2018-05-15T06:23:56.871Z,950.75
2018-05-15T06:24:56.890Z,950.7
2018-05-15T06:25:56.911Z,950.74
2018-05-15T06:26:56.936Z,950.75
2018-05-15T06:27:56.957Z,950.82
2018-05-15T06:28:56.992Z,950.82
2018-05-15T06:29:57.006Z,950.82
2018-05-15T06:30:57.029Z,950.86
2018-05-15T06:31:57.203Z,950.85
2018-05-15T06:32:57.076Z,950.89
2018-05-15T06:33:57.100Z,950.95
2018-05-15T06:34:57.122Z,950.93
2018-05-15T06:35:57.147Z,950.97
2018-05-15T06:36:57.172Z,950.97
2018-05-15T06:37:57.193Z,950.91
2018-05-15T06:38:57.217Z,950.92
2018-05-15T06:39:57.240Z,950.92
2018-05-15T06:40:57.268Z,950.96
2018-05-15T06:41:57.293Z,950.95
2018-05-15T06:42:57.311Z,950.94
2018-05-15T06:43:57.336Z,950.97
2018-05-15T06:44:57.364Z,950.91
2018-05-15T06:45:57.382Z,950.91
2018-05-15T06:46:57.458Z,950.89
2018-05-15T06:47:57.431Z,950.93
2018-05-15T06:48:57.454Z,950.95
2018-05-15T06:49:57.479Z,950.95
2018-05-15T06:50:57.503Z,950.95
2018-05-15T06:51:57.578Z,950.95
2018-05-15T06:52:57.550Z,950.96
2018-05-15T06:53:57.573Z,950.96
2018-05-15T06:54:57.599Z,950.95
2018-05-15T06:55:57.621Z,950.96
2018-05-15T06:56:57.656Z,950.95
2018-05-15T06:57:57.672Z,950.95
2018-05-15T06:58:57.695Z,950.94
2018-05-15T06:59:57.719Z,950.92
2018-05-15T07:00:57.744Z,950.96
2018-05-15T07:01:57.768Z,950.96
2018-05-15T07:02:57.792Z,950.92
2018-05-15T07:03:57.815Z,950.97
2018-05-15T07:04:57.854Z,950.95
2018-05-15T07:05:57.864Z,950.95
2018-05-15T07:06:57.939Z,950.9
2018-05-15T07:07:57.914Z,950.92
2018-05-15T07:08:57.937Z,950.93
2018-05-15T07:09:57.961Z,950.9
2018-05-15T07:10:57.985Z,950.94
2018-05-15T07:11:58.011Z,950.97
2018-05-15T07:12:58.037Z,950.96
2018-05-15T07:13:58.148Z,951.02
2018-05-15T07:14:58.083Z,951.03
2018-05-15T07:15:58.109Z,951.04
2018-05-15T07:16:58.133Z,951.03
2018-05-15T07:17:58.161Z,951.03
2018-05-15T07:18:58.190Z,951.02
2018-05-15T07:19:58.206Z,951.02
2018-05-15T07:20:58.232Z,951.04
2018-05-15T07:21:58.306Z,951.04
2018-05-15T07:22:58.280Z,951.1
2018-05-15T07:23:58.306Z,951.12
2018-05-15T07:24:58.330Z,951.14
2018-05-15T07:25:58.356Z,951.12
2018-05-15T07:26:59.583Z,951.12
2018-05-15T07:27:58.406Z,951.16
2018-05-15T07:28:58.429Z,951.13
2018-05-15T07:29:58.456Z,951.11
2018-05-15T07:30:58.480Z,951.19
2018-05-15T07:31:58.503Z,951.21
2018-05-15T07:32:58.527Z,951.16
2018-05-15T07:33:58.552Z,951.17
2018-05-15T07:34:58.578Z,951.16
2018-05-15T07:35:58.603Z,951.15
2018-05-15T07:36:58.632Z,951.17
2018-05-15T07:37:58.653Z,951.22
2018-05-15T07:38:58.679Z,951.2
2018-05-15T07:39:58.703Z,951.19
2018-05-15T07:40:58.735Z,951.22
2018-05-15T07:41:58.756Z,951.21
2018-05-15T07:42:58.781Z,951.22
2018-05-15T07:43:58.805Z,951.24
2018-05-15T07:44:58.834Z,951.25
2018-05-15T07:45:58.856Z,951.26
2018-05-15T07:46:58.880Z,951.18
2018-05-15T07:47:58.906Z,951.17
2018-05-15T07:48:58.930Z,951.22
2018-05-15T07:49:58.956Z,951.24
2018-05-15T07:50:58.981Z,951.23
2018-05-15T07:51:59.006Z,951.24
2018-05-15T07:52:59.034Z,951.23
2018-05-15T07:53:59.059Z,951.27
2018-05-15T07:54:59.079Z,951.25
2018-05-15T07:55:59.106Z,951.28
2018-05-15T07:56:59.130Z,951.28
2018-05-15T07:57:59.155Z,951.26
2018-05-15T07:58:59.180Z,951.31
2018-05-15T07:59:59.205Z,951.26
2018-05-15T08:00:59.230Z,951.26
2018-05-15T08:01:59.308Z,951.29
2018-05-15T08:02:59.288Z,951.27
2018-05-15T08:03:59.305Z,951.29
2018-05-15T08:04:59.332Z,951.3
2018-05-15T08:05:59.355Z,951.33
2018-05-15T08:06:59.384Z,951.33
2018-05-15T08:07:59.408Z,951.35
2018-05-15T08:08:59.431Z,951.33
2018-05-15T08:09:59.457Z,951.32
2018-05-15T08:10:59.483Z,951.32
2018-05-15T08:11:59.508Z,951.3
2018-05-15T08:12:59.534Z,951.35
2018-05-15T08:13:59.559Z,951.32
2018-05-15T08:14:59.584Z,951.28
2018-05-15T08:15:59.611Z,951.32
2018-05-15T08:16:59.637Z,951.27
2018-05-15T08:17:59.665Z,951.33
2018-05-15T08:18:59.693Z,951.34
2018-05-15T08:19:59.710Z,951.38
2018-05-15T08:20:59.738Z,951.41
2018-05-15T08:21:59.764Z,951.41
2018-05-15T08:22:59.791Z,951.44
2018-05-15T08:23:59.816Z,951.41
2018-05-15T08:24:59.845Z,951.38
2018-05-15T08:25:59.869Z,951.4
2018-05-15T08:26:59.897Z,951.39
2018-05-15T08:27:59.924Z,951.36
2018-05-15T08:28:59.951Z,951.41
2018-05-15T08:29:59.975Z,951.39
2018-05-15T08:30:59.999Z,951.36
2018-05-15T08:32:00.027Z,951.39
2018-05-15T08:33:00.052Z,951.36
2018-05-15T08:34:00.077Z,951.37
2018-05-15T08:35:00.101Z,951.34
2018-05-15T08:36:00.128Z,951.36
2018-05-15T08:37:00.155Z,951.32
2018-05-15T08:38:00.187Z,951.4
2018-05-15T08:39:00.207Z,951.37
2018-05-15T08:40:00.232Z,951.39
2018-05-15T08:41:00.260Z,951.4
2018-05-15T08:42:00.285Z,951.44
2018-05-15T08:43:00.314Z,951.41
2018-05-15T08:44:00.337Z,951.4
2018-05-15T08:45:00.364Z,951.42
2018-05-15T08:46:00.390Z,951.42
2018-05-15T08:47:00.418Z,951.44
2018-05-15T08:48:00.440Z,951.43
2018-05-15T08:49:00.467Z,951.44
2018-05-15T08:50:00.491Z,951.42
2018-05-15T08:51:00.518Z,951.41
2018-05-15T08:52:00.544Z,951.41
2018-05-15T08:53:00.569Z,951.44
2018-05-15T08:54:00.596Z,951.44
2018-05-15T08:55:00.623Z,951.42
2018-05-15T08:56:00.646Z,951.44
2018-05-15T08:57:00.678Z,951.45
2018-05-15T08:58:00.700Z,951.45
2018-05-15T08:59:00.726Z,951.47
2018-05-15T09:00:00.752Z,951.48
2018-05-15T09:01:00.777Z,951.47
2018-05-15T09:02:00.804Z,951.45
2018-05-15T09:03:00.881Z,951.45
2018-05-15T09:04:00.856Z,951.43
2018-05-15T09:05:00.886Z,951.43
2018-05-15T09:06:00.908Z,951.38
2018-05-15T09:07:00.934Z,951.44
2018-05-15T09:08:00.964Z,951.41
2018-05-15T09:09:00.991Z,951.43
2018-05-15T09:10:01.015Z,951.43
2018-05-15T09:11:01.038Z,951.47
2018-05-15T09:12:01.064Z,951.45
2018-05-15T09:13:01.091Z,951.41
2018-05-15T09:14:01.118Z,951.44
2018-05-15T09:15:01.143Z,951.42
2018-05-15T09:16:01.169Z,951.4
2018-05-15T09:17:01.196Z,951.45
2018-05-15T09:18:01.271Z,951.43
2018-05-15T09:19:01.247Z,951.45
2018-05-15T09:20:01.273Z,951.45
2018-05-15T09:21:01.299Z,951.47
2018-05-15T09:22:01.336Z,951.47
2018-05-15T09:23:01.401Z,951.48
2018-05-15T09:24:01.374Z,951.49
2018-05-15T09:25:01.401Z,951.44
2018-05-15T09:26:01.426Z,951.45
2018-05-15T09:27:01.452Z,951.44
2018-05-15T09:28:01.478Z,951.44
2018-05-15T09:29:01.503Z,951.42
2018-05-15T09:30:01.531Z,951.48
2018-05-15T09:31:01.553Z,951.44
2018-05-15T09:32:01.581Z,951.43
2018-05-15T09:33:01.606Z,951.45
2018-05-15T09:34:01.631Z,951.48
2018-05-15T09:35:01.657Z,951.44
2018-05-15T09:36:01.684Z,951.46
2018-05-15T09:37:01.709Z,951.44
2018-05-15T09:38:01.784Z,951.42
2018-05-15T09:39:01.760Z,951.47
2018-05-15T09:40:01.788Z,951.43
2018-05-15T09:41:01.810Z,951.44
2018-05-15T09:42:01.836Z,951.4
2018-05-15T09:43:01.913Z,951.42
2018-05-15T09:44:01.885Z,951.43
2018-05-15T09:45:01.913Z,951.42
2018-05-15T09:46:01.939Z,951.42
2018-05-15T09:47:02.023Z,951.43
2018-05-15T09:48:01.990Z,951.4
2018-05-15T09:49:02.019Z,951.41
2018-05-15T09:50:02.063Z,951.42
2018-05-15T09:51:02.069Z,951.42
2018-05-15T09:52:02.094Z,951.41
2018-05-15T09:53:02.172Z,951.42
2018-05-15T09:54:02.149Z,951.37
2018-05-15T09:55:02.173Z,951.43
2018-05-15T09:56:02.202Z,951.43
2018-05-15T09:57:02.225Z,951.34
2018-05-15T09:58:02.401Z,951.35
2018-05-15T09:59:02.277Z,951.34
2018-05-15T10:00:02.303Z,951.31
2018-05-15T10:01:02.331Z,951.3
2018-05-15T10:02:02.361Z,951.27
2018-05-15T10:03:02.384Z,951.29
2018-05-15T10:04:02.412Z,951.26
2018-05-15T10:05:02.441Z,951.25
2018-05-15T10:06:02.464Z,951.26
2018-05-15T10:07:02.492Z,951.25
2018-05-15T10:08:02.654Z,951.25
2018-05-15T10:09:02.548Z,951.25
2018-05-15T10:10:02.576Z,951.29
2018-05-15T10:11:02.600Z,951.27
2018-05-15T10:12:02.628Z,951.32
2018-05-15T10:13:02.706Z,951.37
2018-05-15T10:14:02.679Z,951.37
2018-05-15T10:15:02.707Z,951.43
2018-05-15T10:16:02.734Z,951.58
2018-05-15T10:17:02.760Z,951.63
2018-05-15T10:18:02.785Z,951.73
2018-05-15T10:19:02.811Z,951.71
2018-05-15T10:20:02.875Z,951.73
2018-05-15T10:21:02.863Z,951.75
2018-05-15T10:22:02.886Z,951.72
2018-05-15T10:23:02.911Z,951.7
2018-05-15T10:24:02.937Z,951.79
2018-05-15T10:25:02.962Z,951.76
2018-05-15T10:26:02.986Z,951.72
2018-05-15T10:27:03.011Z,951.73
2018-05-15T10:28:03.160Z,951.69
2018-05-15T10:29:03.062Z,951.71
2018-05-15T10:30:03.200Z,951.71
2018-05-15T10:31:03.106Z,951.63
2018-05-15T10:32:03.129Z,951.61
2018-05-15T10:33:03.149Z,951.58
2018-05-15T10:34:03.178Z,951.55
2018-05-15T10:35:03.198Z,951.53
2018-05-15T10:36:03.221Z,951.55
2018-05-15T10:37:03.248Z,951.5
2018-05-15T10:38:03.266Z,951.53
2018-05-15T10:39:03.288Z,951.5
2018-05-15T10:40:03.312Z,951.51
2018-05-15T10:41:03.343Z,951.51
2018-05-15T10:42:03.362Z,951.5
2018-05-15T10:43:03.430Z,951.54
2018-05-15T10:44:03.495Z,951.5
2018-05-15T10:45:03.424Z,951.47
2018-05-15T10:46:03.483Z,951.4
2018-05-15T10:47:03.467Z,951.41
2018-05-15T10:48:03.495Z,951.42
2018-05-15T10:49:03.514Z,951.46
2018-05-15T10:50:03.541Z,951.47
2018-05-15T10:51:03.559Z,951.42
2018-05-15T10:52:03.581Z,951.44
2018-05-15T10:53:03.602Z,951.4
2018-05-15T10:54:03.624Z,951.39
2018-05-15T10:55:03.646Z,951.37
2018-05-15T10:56:03.668Z,951.35
2018-05-15T10:57:03.689Z,951.35
2018-05-15T10:58:03.862Z,951.37
2018-05-15T10:59:03.734Z,951.4
2018-05-15T11:00:03.758Z,951.42
2018-05-15T11:01:03.778Z,951.43
2018-05-15T11:02:03.800Z,951.45
2018-05-15T11:03:03.821Z,951.5
2018-05-15T11:04:03.844Z,951.55
2018-05-15T11:05:03.865Z,951.56
2018-05-15T11:06:03.956Z,951.57
2018-05-15T11:07:03.910Z,951.61
2018-05-15T11:08:03.937Z,951.61
2018-05-15T11:09:03.954Z,951.64
2018-05-15T11:10:03.976Z,951.64
2018-05-15T11:11:03.999Z,951.64
2018-05-15T11:12:04.026Z,951.67
2018-05-15T11:13:04.044Z,951.64
2018-05-15T11:14:04.066Z,951.66
2018-05-15T11:15:04.088Z,951.67
2018-05-15T11:16:04.111Z,951.65
2018-05-15T11:17:04.133Z,951.63
2018-05-15T11:18:04.156Z,951.63
2018-05-15T11:19:04.178Z,951.67
2018-05-15T11:20:04.201Z,951.6
2018-05-15T11:21:04.224Z,951.61
2018-05-15T11:22:04.246Z,951.62
2018-05-15T11:23:04.268Z,951.61
2018-05-15T11:24:04.291Z,951.64
2018-05-15T11:25:04.314Z,951.61
2018-05-15T11:26:04.336Z,951.56
2018-05-15T11:27:04.359Z,951.55
2018-05-15T11:28:04.387Z,951.56
2018-05-15T11:29:04.405Z,951.53
2018-05-15T11:30:04.431Z,951.52
2018-05-15T11:31:04.451Z,951.48
2018-05-15T11:32:04.473Z,951.49
2018-05-15T11:33:04.497Z,951.47
2018-05-15T11:34:04.519Z,951.46
2018-05-15T11:35:04.567Z,951.48
2018-05-15T11:36:04.681Z,951.45
2018-05-15T11:37:04.591Z,951.46
2018-05-15T11:38:04.611Z,951.48
2018-05-15T11:39:04.634Z,951.47
2018-05-15T11:40:04.659Z,951.46
2018-05-15T11:41:04.681Z,951.5
2018-05-15T11:42:04.706Z,951.46
2018-05-15T11:43:04.732Z,951.51
2018-05-15T11:44:04.752Z,951.5
2018-05-15T11:45:04.774Z,951.52
2018-05-15T11:46:04.799Z,951.52
2018-05-15T11:47:04.824Z,951.55
2018-05-15T11:48:05.158Z,951.54
2018-05-15T11:49:05.713Z,951.54
2018-05-15T11:50:05.800Z,951.57
2018-05-15T11:51:06.116Z,951.52
2018-05-15T11:52:05.730Z,951.58
2018-05-15T11:53:05.954Z,951.65
2018-05-15T11:54:04.995Z,951.63
2018-05-15T11:55:05.025Z,951.64
2018-05-15T11:56:05.049Z,951.65
2018-05-15T11:57:05.070Z,951.65
2018-05-15T11:58:05.197Z,951.68
2018-05-15T11:59:05.121Z,951.64
2018-05-15T12:00:05.165Z,951.69
2018-05-15T12:01:05.176Z,951.68
2018-05-15T12:02:05.199Z,951.67
2018-05-15T12:03:05.223Z,951.65
2018-05-15T12:04:05.274Z,951.7
2018-05-15T12:05:05.275Z,951.71
2018-05-15T12:06:05.305Z,951.71
2018-05-15T12:07:05.332Z,951.7
2018-05-15T12:08:05.473Z,951.72
2018-05-15T12:09:05.433Z,951.73
2018-05-15T12:10:05.414Z,951.74
2018-05-15T12:11:05.443Z,951.73
2018-05-15T12:12:05.469Z,951.71
2018-05-15T12:13:05.497Z,951.74
2018-05-15T12:14:05.524Z,951.76
2018-05-15T12:15:05.639Z,951.73
2018-05-15T12:16:05.590Z,951.68
2018-05-15T12:17:05.612Z,951.64
2018-05-15T12:18:05.640Z,951.6
2018-05-15T12:19:05.668Z,951.55
2018-05-15T12:20:05.698Z,951.55
2018-05-15T12:21:05.730Z,951.51
2018-05-15T12:22:05.767Z,951.5
2018-05-15T12:23:05.786Z,951.48
2018-05-15T12:24:05.815Z,951.5
2018-05-15T12:25:05.843Z,951.55
2018-05-15T12:26:05.873Z,951.66
2018-05-15T12:27:05.902Z,951.61
2018-05-15T12:28:05.970Z,951.68
2018-05-15T12:29:05.962Z,951.71
2018-05-15T12:30:05.990Z,951.69
2018-05-15T12:31:06.019Z,951.68